createdAt,value
2019-01-05T00:02:57.331Z,52.33
2019-01-05T00:06:30.659Z,52.89
2019-01-05T00:09:59.956Z,52.21
2019-01-05T00:13:27.300Z,52.33
2019-01-05T00:16:51.222Z,53.46
2019-01-05T00:20:15.288Z,52.64
2019-01-05T00:23:39.940Z,53.11
2019-01-05T00:27:04.516Z,53.07
2019-01-05T00:30:44.421Z,53.14
2019-01-05T00:34:12.768Z,53.85
2019-01-05T00:37:46.258Z,53.89
2019-01-05T00:41:08.656Z,53.34
2019-01-05T00:44:32.548Z,53.34
2019-01-05T00:48:16.680Z,52.95
2019-01-05T00:51:45.935Z,53.30
2019-01-05T00:55:13.765Z,52.41
2019-01-05T00:58:48.536Z,52.89
2019-01-05T01:02:28.796Z,53.32
2019-01-05T01:05:52.184Z,53.06
2019-01-05T01:09:28.976Z,52.68
2019-01-05T01:13:08.654Z,51.97
2019-01-05T01:16:32.029Z,50.90
2019-01-05T01:19:53.398Z,51.33
2019-01-05T01:23:33.176Z,51.42
2019-01-05T01:27:07.345Z,51.12
2019-01-05T01:30:30.624Z,50.68
2019-01-05T01:33:58.092Z,50.68
2019-01-05T01:37:32.083Z,50.89
2019-01-05T01:41:03.086Z,50.89
2019-01-05T01:44:43.094Z,50.94
2019-01-05T01:48:21.515Z,50.79
2019-01-05T01:51:51.895Z,50.95
2019-01-05T01:55:18.049Z,51.09
2019-01-05T01:58:48.564Z,51.28
2019-01-05T02:02:26.791Z,50.91
2019-01-05T02:05:57.442Z,50.97
2019-01-05T02:09:21.821Z,50.08
2019-01-05T02:12:56.077Z,49.98
2019-01-05T02:16:36.727Z,50.45
2019-01-05T02:20:18.002Z,50.86
2019-01-05T02:24:26.442Z,50.11
2019-01-05T02:28:30.762Z,50.64
2019-01-05T02:32:28.424Z,51.33
2019-01-05T02:36:27.087Z,50.46
2019-01-05T02:40:23.124Z,51.13
2019-01-05T02:44:33.631Z,50.17
2019-01-05T02:48:53.341Z,50.53
2019-01-05T02:52:52.837Z,50.25
2019-01-05T02:57:26.244Z,50.32
2019-01-05T03:01:30.917Z,50.16
2019-01-05T03:05:54.920Z,50.26
2019-01-05T03:10:24.160Z,51.61
2019-01-05T03:14:49.236Z,54.10
2019-01-05T03:19:20.469Z,54.99
2019-01-05T03:23:13.868Z,55.47
2019-01-05T03:27:19.238Z,55.55
2019-01-05T03:31:25.987Z,54.78
2019-01-05T03:35:20.537Z,54.80
2019-01-05T03:39:19.257Z,54.88
2019-01-05T03:43:41.734Z,55.05
2019-01-05T03:47:43.667Z,55.64
2019-01-05T03:51:49.420Z,54.66
2019-01-05T03:56:12.481Z,54.55
2019-01-05T04:00:28.736Z,54.07
2019-01-05T04:04:40.689Z,54.67
2019-01-05T04:08:52.541Z,55.27
2019-01-05T04:13:01.140Z,55.61
2019-01-05T04:17:05.087Z,55.24
2019-01-05T04:20:52.654Z,55.38
2019-01-05T04:25:02.676Z,55.69
2019-01-05T04:29:05.202Z,54.73
2019-01-05T04:33:15.828Z,54.25
2019-01-05T04:37:19.717Z,53.91
2019-01-05T04:41:23.566Z,54.55
2019-01-05T04:45:22.468Z,54.78
2019-01-05T04:49:27.057Z,54.21
2019-01-05T04:53:42.768Z,53.41
2019-01-05T04:57:59.722Z,53.62
2019-01-05T05:02:25.033Z,53.87
2019-01-05T05:06:37.251Z,53.30
2019-01-05T05:10:53.168Z,52.98
2019-01-05T05:14:59.871Z,52.73
2019-01-05T05:19:08.801Z,52.45
2019-01-05T05:23:21.513Z,53.04
2019-01-05T05:27:15.156Z,52.20
2019-01-05T05:31:38.784Z,51.99
2019-01-05T05:35:58.054Z,51.73
2019-01-05T05:40:21.032Z,51.68
2019-01-05T05:44:47.634Z,51.67
2019-01-05T05:48:36.411Z,51.64
2019-01-05T05:52:34.290Z,51.82
2019-01-05T05:56:56.442Z,51.58
2019-01-05T06:01:16.113Z,50.90
2019-01-05T06:05:26.289Z,50.98
2019-01-05T06:09:28.835Z,51.33
2019-01-05T06:13:31.695Z,51.66
2019-01-05T06:17:42.345Z,51.27
2019-01-05T06:21:43.849Z,51.14
2019-01-05T06:26:05.351Z,51.18
2019-01-05T06:30:27.176Z,50.59
2019-01-05T06:34:27.613Z,50.52
2019-01-05T06:38:32.033Z,50.28
2019-01-05T06:42:37.602Z,50.46
2019-01-05T06:46:38.628Z,50.69
2019-01-05T06:50:40.263Z,51.46
2019-01-05T06:54:43.343Z,52.31
2019-01-05T06:58:50.075Z,53.10
2019-01-05T07:02:54.704Z,53.43
2019-01-05T07:07:24.721Z,55.98
2019-01-05T07:11:56.127Z,53.94
2019-01-05T07:16:05.012Z,52.78
2019-01-05T07:20:04.899Z,51.74
2019-01-05T07:24:22.778Z,50.76
2019-01-05T07:28:21.681Z,50.99
2019-01-05T07:32:25.434Z,51.62
2019-01-05T07:36:49.900Z,50.97
2019-01-05T07:41:09.792Z,49.91
2019-01-05T07:45:05.863Z,49.27
2019-01-05T07:49:04.695Z,49.08
2019-01-05T07:53:24.393Z,48.93
2019-01-05T07:57:33.794Z,48.95
2019-01-05T08:01:58.900Z,48.55
2019-01-05T08:06:07.344Z,48.28
2019-01-05T08:10:06.176Z,50.09
2019-01-05T08:14:52.622Z,49.54
2019-01-05T08:19:21.384Z,49.29
2019-01-05T08:23:35.375Z,49.45
2019-01-05T08:27:25.280Z,49.82
2019-01-05T08:31:30.720Z,50.35
2019-01-05T08:35:28.740Z,50.99
2019-01-05T08:39:57.778Z,51.58
2019-01-05T08:44:00.279Z,51.86
2019-01-05T08:48:03.657Z,51.35
2019-01-05T08:52:09.130Z,51.06
2019-01-05T08:56:32.471Z,50.92
2019-01-05T09:01:04.892Z,50.58
2019-01-05T09:05:49.059Z,49.76
2019-01-05T09:09:48.392Z,49.08
2019-01-05T09:14:08.450Z,48.76
2019-01-05T09:18:11.534Z,48.56
2019-01-05T09:22:29.859Z,48.26
2019-01-05T09:26:59.137Z,48.15
2019-01-05T09:31:07.941Z,47.65
2019-01-05T09:35:16.845Z,47.45
2019-01-05T09:39:35.393Z,47.71
2019-01-05T09:43:34.708Z,46.67
2019-01-05T09:47:32.450Z,46.91
2019-01-05T09:51:31.507Z,46.55
2019-01-05T09:55:46.977Z,46.03
2019-01-05T09:59:51.259Z,46.24
2019-01-05T10:03:54.149Z,46.29
2019-01-05T10:07:59.831Z,45.73
2019-01-05T10:11:57.168Z,45.80
2019-01-05T10:16:10.588Z,46.60
2019-01-05T10:20:03.887Z,46.00
2019-01-05T10:24:33.263Z,46.12
2019-01-05T10:28:46.038Z,45.72
2019-01-05T10:32:57.823Z,46.12
2019-01-05T10:37:09.005Z,45.97
2019-01-05T10:41:18.801Z,45.50
2019-01-05T10:45:28.609Z,45.25
2019-01-05T10:49:39.366Z,44.21
2019-01-05T10:53:27.111Z,44.15
2019-01-05T10:58:02.835Z,43.98
2019-01-05T11:02:11.679Z,43.89
2019-01-05T11:06:12.304Z,43.59
2019-01-05T11:10:19.110Z,42.88
2019-01-05T11:14:30.770Z,41.77
2019-01-05T11:18:42.383Z,41.73
2019-01-05T11:22:42.222Z,41.51
2019-01-05T11:27:08.178Z,40.73
2019-01-05T11:31:25.718Z,40.24
2019-01-05T11:35:57.209Z,40.17
2019-01-05T11:40:02.913Z,40.51
2019-01-05T11:44:20.097Z,39.95
2019-01-05T11:48:34.231Z,41.35
2019-01-05T11:52:34.102Z,41.47
2019-01-05T11:56:54.528Z,42.43
2019-01-05T12:01:10.409Z,42.64
2019-01-05T12:05:16.465Z,43.18
2019-01-05T12:09:20.216Z,43.19
2019-01-05T12:13:15.967Z,43.21
2019-01-05T12:17:17.602Z,43.84
2019-01-05T12:21:20.330Z,43.19
2019-01-05T12:25:42.358Z,42.91
2019-01-05T12:30:02.015Z,43.29
2019-01-05T12:34:37.834Z,44.49
2019-01-05T12:39:16.039Z,44.54
2019-01-05T12:43:22.823Z,44.16
2019-01-05T12:48:00.950Z,43.83
2019-01-05T12:52:05.301Z,44.23
2019-01-05T12:56:22.736Z,43.51
2019-01-05T13:00:22.231Z,43.63
2019-01-05T13:04:34.089Z,43.72
2019-01-05T13:09:12.518Z,43.66
2019-01-05T13:13:28.221Z,43.60
2019-01-05T13:17:48.606Z,43.86
2019-01-05T13:21:35.602Z,43.73
2019-01-05T13:25:45.249Z,43.34
2019-01-05T13:29:35.753Z,43.18
2019-01-05T13:33:51.067Z,43.00
2019-01-05T13:37:50.360Z,42.62
2019-01-05T13:41:54.306Z,42.90
2019-01-05T13:46:23.648Z,43.22
2019-01-05T13:50:33.017Z,43.09
2019-01-05T13:54:14.125Z,44.03
2019-01-05T13:57:41.677Z,44.39
2019-01-05T14:01:06.195Z,44.17
2019-01-05T14:04:30.677Z,44.29
2019-01-05T14:08:13.624Z,44.80
2019-01-05T14:11:46.969Z,44.64
2019-01-05T14:15:11.420Z,44.51
2019-01-05T14:18:44.865Z,44.35
2019-01-05T14:22:08.080Z,44.59
2019-01-05T14:25:41.303Z,44.38
2019-01-05T14:29:12.075Z,44.23
2019-01-05T14:32:35.604Z,45.87
2019-01-05T14:36:15.684Z,45.53
2019-01-05T14:39:52.338Z,46.15
2019-01-05T14:43:15.599Z,46.60
2019-01-05T14:46:43.381Z,47.03
2019-01-05T14:50:26.166Z,47.24
2019-01-05T14:53:49.196Z,47.61
2019-01-05T14:57:12.345Z,47.39
2019-01-05T15:00:33.909Z,47.42
2019-01-05T15:04:10.742Z,47.22
2019-01-05T15:07:33.876Z,47.17
2019-01-05T15:11:04.519Z,46.74
2019-01-05T15:14:38.044Z,46.35
2019-01-05T15:18:05.335Z,46.02
2019-01-05T15:21:35.676Z,46.06
2019-01-05T15:25:06.278Z,46.41
2019-01-05T15:28:29.589Z,46.26
2019-01-05T15:32:00.102Z,46.73
2019-01-05T15:35:23.596Z,46.70
2019-01-05T15:38:54.282Z,46.41
2019-01-05T15:42:27.808Z,46.35
2019-01-05T15:45:55.355Z,46.85
2019-01-05T15:49:19.837Z,46.73
2019-01-05T15:52:43.173Z,46.98
2019-01-05T15:56:10.676Z,46.80
2019-01-05T15:59:34.074Z,46.73
2019-01-05T16:02:57.648Z,47.33
2019-01-05T16:06:37.543Z,47.30
2019-01-05T16:10:17.067Z,47.37
2019-01-05T16:13:40.190Z,48.35
2019-01-05T16:17:08.023Z,47.72
2019-01-05T16:20:31.441Z,48.24
2019-01-05T16:24:02.368Z,48.26
2019-01-05T16:27:25.712Z,48.55
2019-01-05T16:30:50.207Z,48.47
2019-01-05T16:34:20.834Z,47.93
2019-01-05T16:38:00.458Z,50.95
2019-01-05T16:41:23.520Z,47.15
2019-01-05T16:44:54.240Z,47.64
2019-01-05T16:48:27.730Z,48.53
2019-01-05T16:51:55.060Z,48.66
2019-01-05T16:55:19.544Z,48.42
2019-01-05T16:58:43.064Z,48.80
2019-01-05T17:02:22.604Z,48.80
2019-01-05T17:05:58.982Z,49.68
2019-01-05T17:09:34.418Z,48.96
2019-01-05T17:13:01.738Z,48.78
2019-01-05T17:16:32.163Z,49.24
2019-01-05T17:19:49.427Z,48.75
2019-01-05T17:23:16.752Z,48.56
2019-01-05T17:26:41.350Z,48.68
2019-01-05T17:30:01.079Z,49.07
2019-01-05T17:33:26.211Z,49.67
2019-01-05T17:36:49.611Z,50.15
2019-01-05T17:40:29.324Z,49.68
2019-01-05T17:43:53.859Z,49.11
2019-01-05T17:47:24.489Z,49.98
2019-01-05T17:51:01.142Z,49.62
2019-01-05T17:54:24.524Z,49.79
2019-01-05T17:57:47.951Z,49.89
2019-01-05T18:01:11.540Z,49.64
2019-01-05T18:04:38.955Z,49.57
2019-01-05T18:08:02.118Z,49.94
2019-01-05T18:11:25.323Z,50.13
2019-01-05T18:15:02.092Z,50.11
2019-01-05T18:18:42.236Z,51.55
2019-01-05T18:22:03.538Z,52.28
2019-01-05T18:25:39.934Z,50.95
2019-01-05T18:29:03.472Z,50.11
2019-01-05T18:32:28.004Z,50.20
2019-01-05T18:35:58.552Z,49.83
2019-01-05T18:39:23.140Z,49.61
2019-01-05T18:42:53.550Z,49.78
2019-01-05T18:46:18.297Z,49.51
2019-01-05T18:49:41.535Z,49.25
2019-01-05T18:53:03.332Z,48.88
2019-01-05T18:56:43.237Z,49.35
2019-01-05T19:00:18.018Z,49.31
2019-01-05T19:03:49.990Z,49.07
2019-01-05T19:07:17.550Z,48.41
2019-01-05T19:10:48.157Z,48.47
2019-01-05T19:14:11.569Z,48.74
2019-01-05T19:17:34.909Z,48.71
2019-01-05T19:21:08.518Z,48.50
2019-01-05T19:24:31.765Z,48.38
2019-01-05T19:27:56.227Z,49.09
2019-01-05T19:31:26.622Z,48.46
2019-01-05T19:34:51.089Z,48.58
2019-01-05T19:38:24.906Z,48.60
2019-01-05T19:41:45.970Z,49.25
2019-01-05T19:45:09.382Z,49.17
2019-01-05T19:48:32.501Z,48.90
2019-01-05T19:51:55.664Z,48.84
2019-01-05T19:55:19.014Z,49.19
2019-01-05T19:58:42.360Z,49.21
2019-01-05T20:02:05.487Z,49.90
2019-01-05T20:05:29.982Z,50.80
2019-01-05T20:09:12.675Z,50.53
2019-01-05T20:12:37.186Z,50.86
2019-01-05T20:16:07.622Z,51.30
2019-01-05T20:19:30.786Z,50.88
2019-01-05T20:22:53.918Z,50.34
2019-01-05T20:26:18.505Z,51.83
2019-01-05T20:29:41.845Z,50.66
2019-01-05T20:33:12.181Z,49.96
2019-01-05T20:36:36.800Z,49.52
2019-01-05T20:39:53.857Z,50.05
2019-01-05T20:43:24.504Z,50.15
2019-01-05T20:46:46.094Z,50.89
2019-01-05T20:50:09.525Z,50.81
2019-01-05T20:53:46.147Z,51.75
2019-01-05T20:57:16.631Z,51.26
2019-01-05T21:00:43.885Z,52.07
2019-01-05T21:04:14.614Z,51.35
2019-01-05T21:07:38.229Z,51.64
2019-01-05T21:11:08.859Z,52.15
2019-01-05T21:14:31.950Z,52.02
2019-01-05T21:18:11.685Z,51.77
2019-01-05T21:21:35.941Z,52.68
2019-01-05T21:24:59.130Z,51.27
2019-01-05T21:29:03.584Z,50.93
2019-01-05T21:32:50.647Z,51.40
2019-01-05T21:36:29.164Z,50.71
2019-01-05T21:40:12.551Z,51.51
2019-01-05T21:43:41.623Z,51.90
2019-01-05T21:47:04.718Z,51.32
2019-01-05T21:50:28.152Z,50.80
2019-01-05T21:54:04.790Z,50.94
2019-01-05T21:57:26.953Z,52.07
2019-01-05T22:01:06.933Z,51.70
2019-01-05T22:04:40.620Z,52.19
2019-01-05T22:08:04.115Z,51.51
2019-01-05T22:11:34.506Z,51.62
2019-01-05T22:15:15.751Z,51.18
2019-01-05T22:18:36.387Z,50.05
2019-01-05T22:22:12.936Z,50.16
2019-01-05T22:25:36.294Z,50.29
2019-01-05T22:28:59.402Z,50.45
2019-01-05T22:32:26.653Z,51.25
2019-01-05T22:35:45.176Z,50.60
2019-01-05T22:39:08.642Z,50.64
2019-01-05T22:42:33.166Z,50.46
2019-01-05T22:45:56.315Z,50.60
2019-01-05T22:49:23.548Z,50.10
2019-01-05T22:52:46.865Z,50.49
2019-01-05T22:56:29.726Z,49.46
2019-01-05T22:59:53.099Z,48.74
2019-01-05T23:03:14.460Z,48.55
2019-01-05T23:06:41.952Z,48.19
2019-01-05T23:10:12.247Z,47.58
2019-01-05T23:13:34.192Z,47.24
2019-01-05T23:16:57.259Z,47.23
2019-01-05T23:20:31.237Z,46.94
2019-01-05T23:23:55.737Z,46.97
2019-01-05T23:27:19.081Z,47.70
2019-01-05T23:30:49.674Z,46.95
2019-01-05T23:34:14.161Z,47.43
2019-01-05T23:37:38.603Z,47.53
2019-01-05T23:41:18.082Z,47.12
2019-01-05T23:44:45.362Z,47.64
2019-01-05T23:48:05.195Z,47.40
2019-01-05T23:51:42.455Z,47.41
2019-01-05T23:55:16.897Z,46.84
2019-01-05T23:58:42.135Z,47.29
